sensor_id;sensor_type;location;lat;lon;timestamp;temperature;humidity
5429;DHT22;2737;52.386;9.980;2023-09-19T00:02:26;16.00;99.90
5429;DHT22;2737;52.386;9.980;2023-09-19T00:04:56;15.90;99.90
5429;DHT22;2737;52.386;9.980;2023-09-19T00:07:23;15.90;99.90
5429;DHT22;2737;52.386;9.980;2023-09-19T00:09:50;15.80;99.90
5429;DHT22;2737;52.386;9.980;2023-09-19T00:12:17;15.80;99.90
5429;DHT22;2737;52.386;9.980;2023-09-19T00:14:44;15.80;99.90
5429;DHT22;2737;52.386;9.980;2023-09-19T00:17:11;15.80;99.90
5429;DHT22;2737;52.386;9.980;2023-09-19T00:19:38;15.80;99.90
5429;DHT22;2737;52.386;9.980;2023-09-19T00:22:09;15.80;99.90
5429;DHT22;2737;52.386;9.980;2023-09-19T00:24:38;15.80;99.90
5429;DHT22;2737;52.386;9.980;2023-09-19T00:27:06;15.80;99.90
5429;DHT22;2737;52.386;9.980;2023-09-19T00:29:33;15.80;99.90
5429;DHT22;2737;52.386;9.980;2023-09-19T00:32:00;15.70;99.90
5429;DHT22;2737;52.386;9.980;2023-09-19T00:34:29;15.70;99.90
5429;DHT22;2737;52.386;9.980;2023-09-19T00:36:59;15.60;99.90
5429;DHT22;2737;52.386;9.980;2023-09-19T00:39:28;15.60;99.90
5429;DHT22;2737;52.386;9.980;2023-09-19T00:41:57;15.50;99.90
5429;DHT22;2737;52.386;9.980;2023-09-19T00:44:24;15.50;99.90
5429;DHT22;2737;52.386;9.980;2023-09-19T00:46:53;15.50;99.90
5429;DHT22;2737;52.386;9.980;2023-09-19T00:49:20;15.50;99.90
5429;DHT22;2737;52.386;9.980;2023-09-19T00:51:48;15.50;99.90
5429;DHT22;2737;52.386;9.980;2023-09-19T00:54:16;15.50;99.90
5429;DHT22;2737;52.386;9.980;2023-09-19T00:56:45;15.50;99.90
5429;DHT22;2737;52.386;9.980;2023-09-19T00:59:14;15.60;99.90
5429;DHT22;2737;52.386;9.980;2023-09-19T01:01:42;15.60;99.90
5429;DHT22;2737;52.386;9.980;2023-09-19T01:04:11;15.60;99.90
5429;DHT22;2737;52.386;9.980;2023-09-19T01:06:39;15.60;99.90
5429;DHT22;2737;52.386;9.980;2023-09-19T01:09:06;15.60;99.90
5429;DHT22;2737;52.386;9.980;2023-09-19T01:11:37;15.50;99.90
5429;DHT22;2737;52.386;9.980;2023-09-19T01:14:17;15.50;99.90
5429;DHT22;2737;52.386;9.980;2023-09-19T01:16:53;15.50;99.90
5429;DHT22;2737;52.386;9.980;2023-09-19T01:20:03;15.50;99.90
5429;DHT22;2737;52.386;9.980;2023-09-19T01:22:42;15.40;99.90
5429;DHT22;2737;52.386;9.980;2023-09-19T01:28:34;15.40;99.90
5429;DHT22;2737;52.386;9.980;2023-09-19T01:31:09;15.40;99.90
5429;DHT22;2737;52.386;9.980;2023-09-19T01:33:59;15.40;99.90
5429;DHT22;2737;52.386;9.980;2023-09-19T01:36:28;15.40;99.90
5429;DHT22;2737;52.386;9.980;2023-09-19T01:38:57;15.40;99.90
5429;DHT22;2737;52.386;9.980;2023-09-19T01:41:43;15.40;99.90
5429;DHT22;2737;52.386;9.980;2023-09-19T01:44:17;15.40;99.90
5429;DHT22;2737;52.386;9.980;2023-09-19T01:46:47;15.40;99.90
5429;DHT22;2737;52.386;9.980;2023-09-19T01:49:22;15.40;99.90
5429;DHT22;2737;52.386;9.980;2023-09-19T01:52:04;15.50;99.90
5429;DHT22;2737;52.386;9.980;2023-09-19T01:54:36;15.50;99.90
5429;DHT22;2737;52.386;9.980;2023-09-19T01:57:09;15.50;99.90
5429;DHT22;2737;52.386;9.980;2023-09-19T01:59:41;15.60;99.90
5429;DHT22;2737;52.386;9.980;2023-09-19T02:02:12;15.60;99.90
5429;DHT22;2737;52.386;9.980;2023-09-19T02:04:40;15.60;99.90
5429;DHT22;2737;52.386;9.980;2023-09-19T02:07:07;15.60;99.90
5429;DHT22;2737;52.386;9.980;2023-09-19T02:09:34;15.60;99.90
5429;DHT22;2737;52.386;9.980;2023-09-19T02:12:05;15.60;99.90
5429;DHT22;2737;52.386;9.980;2023-09-19T02:14:33;15.60;99.90
5429;DHT22;2737;52.386;9.980;2023-09-19T02:17:01;15.60;99.90
5429;DHT22;2737;52.386;9.980;2023-09-19T02:19:32;15.60;99.90
5429;DHT22;2737;52.386;9.980;2023-09-19T02:21:59;15.60;99.90
5429;DHT22;2737;52.386;9.980;2023-09-19T02:24:28;15.60;99.90
5429;DHT22;2737;52.386;9.980;2023-09-19T02:26:56;15.70;99.90
5429;DHT22;2737;52.386;9.980;2023-09-19T02:29:25;15.70;99.90
5429;DHT22;2737;52.386;9.980;2023-09-19T02:31:52;15.70;99.90
5429;DHT22;2737;52.386;9.980;2023-09-19T02:34:21;15.70;99.90
5429;DHT22;2737;52.386;9.980;2023-09-19T02:36:50;15.70;99.90
5429;DHT22;2737;52.386;9.980;2023-09-19T02:39:19;15.70;99.90
5429;DHT22;2737;52.386;9.980;2023-09-19T02:41:46;15.70;99.90
5429;DHT22;2737;52.386;9.980;2023-09-19T02:44:14;15.70;99.90
5429;DHT22;2737;52.386;9.980;2023-09-19T02:46:41;15.80;99.90
5429;DHT22;2737;52.386;9.980;2023-09-19T02:49:09;15.80;99.90
5429;DHT22;2737;52.386;9.980;2023-09-19T02:51:36;15.80;99.90
5429;DHT22;2737;52.386;9.980;2023-09-19T02:54:05;15.80;99.90
5429;DHT22;2737;52.386;9.980;2023-09-19T02:56:32;15.80;99.90
5429;DHT22;2737;52.386;9.980;2023-09-19T02:59:00;15.80;99.90
5429;DHT22;2737;52.386;9.980;2023-09-19T03:01:27;15.70;99.90
5429;DHT22;2737;52.386;9.980;2023-09-19T03:03:54;15.70;99.90
5429;DHT22;2737;52.386;9.980;2023-09-19T03:06:22;15.70;99.90
5429;DHT22;2737;52.386;9.980;2023-09-19T03:08:49;15.70;99.90
5429;DHT22;2737;52.386;9.980;2023-09-19T03:11:18;15.60;99.90
5429;DHT22;2737;52.386;9.980;2023-09-19T03:13:51;15.60;99.90
5429;DHT22;2737;52.386;9.980;2023-09-19T03:16:19;15.60;99.90
5429;DHT22;2737;52.386;9.980;2023-09-19T03:18:48;15.60;99.90
5429;DHT22;2737;52.386;9.980;2023-09-19T03:21:15;15.50;99.90
5429;DHT22;2737;52.386;9.980;2023-09-19T03:23:42;15.50;99.90
5429;DHT22;2737;52.386;9.980;2023-09-19T03:26:11;15.50;99.90
5429;DHT22;2737;52.386;9.980;2023-09-19T03:28:43;15.50;99.90
5429;DHT22;2737;52.386;9.980;2023-09-19T03:31:11;15.50;99.90
5429;DHT22;2737;52.386;9.980;2023-09-19T03:33:39;15.50;99.90
5429;DHT22;2737;52.386;9.980;2023-09-19T03:36:06;15.40;99.90
5429;DHT22;2737;52.386;9.980;2023-09-19T03:38:33;15.40;99.90
5429;DHT22;2737;52.386;9.980;2023-09-19T03:41:01;15.40;99.90
5429;DHT22;2737;52.386;9.980;2023-09-19T03:43:28;15.30;99.90
5429;DHT22;2737;52.386;9.980;2023-09-19T03:45:56;15.30;99.90
5429;DHT22;2737;52.386;9.980;2023-09-19T03:48:27;15.30;99.90
5429;DHT22;2737;52.386;9.980;2023-09-19T03:50:55;15.30;99.90
5429;DHT22;2737;52.386;9.980;2023-09-19T03:53:23;15.20;99.90
5429;DHT22;2737;52.386;9.980;2023-09-19T03:55:49;15.20;99.90
5429;DHT22;2737;52.386;9.980;2023-09-19T03:58:16;15.10;99.90
5429;DHT22;2737;52.386;9.980;2023-09-19T04:00:44;15.20;99.90
5429;DHT22;2737;52.386;9.980;2023-09-19T04:03:12;15.10;99.90
5429;DHT22;2737;52.386;9.980;2023-09-19T04:05:45;15.10;99.90
5429;DHT22;2737;52.386;9.980;2023-09-19T04:08:13;15.00;99.90
5429;DHT22;2737;52.386;9.980;2023-09-19T04:10:42;15.00;99.90
5429;DHT22;2737;52.386;9.980;2023-09-19T04:13:09;15.00;99.90
5429;DHT22;2737;52.386;9.980;2023-09-19T04:15:37;14.90;99.90
5429;DHT22;2737;52.386;9.980;2023-09-19T04:18:05;14.90;99.90
5429;DHT22;2737;52.386;9.980;2023-09-19T04:20:34;14.90;99.90
5429;DHT22;2737;52.386;9.980;2023-09-19T04:23:01;14.90;99.90
5429;DHT22;2737;52.386;9.980;2023-09-19T04:25:28;14.90;99.90
5429;DHT22;2737;52.386;9.980;2023-09-19T04:27:55;14.90;99.90
5429;DHT22;2737;52.386;9.980;2023-09-19T04:30:22;14.90;99.90
5429;DHT22;2737;52.386;9.980;2023-09-19T04:32:49;14.90;99.90
5429;DHT22;2737;52.386;9.980;2023-09-19T04:35:17;14.90;99.90
5429;DHT22;2737;52.386;9.980;2023-09-19T04:37:45;14.90;99.90
5429;DHT22;2737;52.386;9.980;2023-09-19T04:40:13;14.90;99.90
5429;DHT22;2737;52.386;9.980;2023-09-19T04:42:43;14.90;99.90
5429;DHT22;2737;52.386;9.980;2023-09-19T04:45:10;14.90;99.90
5429;DHT22;2737;52.386;9.980;2023-09-19T04:47:37;14.90;99.90
5429;DHT22;2737;52.386;9.980;2023-09-19T04:50:07;14.90;99.90
5429;DHT22;2737;52.386;9.980;2023-09-19T04:52:38;14.80;99.90
5429;DHT22;2737;52.386;9.980;2023-09-19T04:55:09;14.80;99.90
5429;DHT22;2737;52.386;9.980;2023-09-19T04:57:36;14.80;99.90
5429;DHT22;2737;52.386;9.980;2023-09-19T05:00:05;14.80;99.90
5429;DHT22;2737;52.386;9.980;2023-09-19T05:02:38;14.80;99.90
5429;DHT22;2737;52.386;9.980;2023-09-19T05:05:06;14.80;99.90
5429;DHT22;2737;52.386;9.980;2023-09-19T05:07:34;14.80;99.90
5429;DHT22;2737;52.386;9.980;2023-09-19T05:10:01;14.70;99.90
5429;DHT22;2737;52.386;9.980;2023-09-19T05:12:34;14.70;99.90
5429;DHT22;2737;52.386;9.980;2023-09-19T05:15:01;14.70;99.90
5429;DHT22;2737;52.386;9.980;2023-09-19T05:17:29;14.70;99.90
5429;DHT22;2737;52.386;9.980;2023-09-19T05:19:57;14.70;99.90
5429;DHT22;2737;52.386;9.980;2023-09-19T05:22:27;14.70;99.90
5429;DHT22;2737;52.386;9.980;2023-09-19T05:24:54;14.70;99.90
5429;DHT22;2737;52.386;9.980;2023-09-19T05:27:21;14.70;99.90
5429;DHT22;2737;52.386;9.980;2023-09-19T05:29:50;14.70;99.90
5429;DHT22;2737;52.386;9.980;2023-09-19T05:32:18;14.70;99.90
5429;DHT22;2737;52.386;9.980;2023-09-19T05:34:46;14.70;99.90
5429;DHT22;2737;52.386;9.980;2023-09-19T05:37:13;14.70;99.90
5429;DHT22;2737;52.386;9.980;2023-09-19T05:39:42;14.70;99.90
5429;DHT22;2737;52.386;9.980;2023-09-19T05:42:09;14.70;99.90
5429;DHT22;2737;52.386;9.980;2023-09-19T05:44:36;14.70;99.90
5429;DHT22;2737;52.386;9.980;2023-09-19T05:47:05;14.80;99.90
5429;DHT22;2737;52.386;9.980;2023-09-19T05:49:34;14.70;99.90
5429;DHT22;2737;52.386;9.980;2023-09-19T05:52:04;14.70;99.90
5429;DHT22;2737;52.386;9.980;2023-09-19T05:54:31;14.80;99.90
5429;DHT22;2737;52.386;9.980;2023-09-19T05:56:59;14.80;99.90
5429;DHT22;2737;52.386;9.980;2023-09-19T05:59:27;14.80;99.90
5429;DHT22;2737;52.386;9.980;2023-09-19T06:01:54;14.70;99.90
5429;DHT22;2737;52.386;9.980;2023-09-19T06:04:22;14.80;99.90
5429;DHT22;2737;52.386;9.980;2023-09-19T06:06:49;14.80;99.90
5429;DHT22;2737;52.386;9.980;2023-09-19T06:09:16;14.80;99.90
5429;DHT22;2737;52.386;9.980;2023-09-19T06:11:44;14.90;99.90
5429;DHT22;2737;52.386;9.980;2023-09-19T06:14:12;14.90;99.90
5429;DHT22;2737;52.386;9.980;2023-09-19T06:16:39;14.90;99.90
5429;DHT22;2737;52.386;9.980;2023-09-19T06:19:07;15.00;99.90
5429;DHT22;2737;52.386;9.980;2023-09-19T06:21:36;15.00;99.90
5429;DHT22;2737;52.386;9.980;2023-09-19T06:24:03;15.10;99.90
5429;DHT22;2737;52.386;9.980;2023-09-19T06:26:30;15.10;99.90
5429;DHT22;2737;52.386;9.980;2023-09-19T06:28:57;15.20;99.90
5429;DHT22;2737;52.386;9.980;2023-09-19T06:31:25;15.20;99.90
5429;DHT22;2737;52.386;9.980;2023-09-19T06:33:52;15.20;99.90
5429;DHT22;2737;52.386;9.980;2023-09-19T06:36:19;15.20;99.90
5429;DHT22;2737;52.386;9.980;2023-09-19T06:38:48;15.30;99.90
5429;DHT22;2737;52.386;9.980;2023-09-19T06:41:17;15.30;99.90
5429;DHT22;2737;52.386;9.980;2023-09-19T06:43:44;15.40;99.90
5429;DHT22;2737;52.386;9.980;2023-09-19T06:46:11;15.40;99.90
5429;DHT22;2737;52.386;9.980;2023-09-19T06:48:38;15.50;99.90
5429;DHT22;2737;52.386;9.980;2023-09-19T06:51:06;15.50;99.90
5429;DHT22;2737;52.386;9.980;2023-09-19T06:53:33;15.50;99.90
5429;DHT22;2737;52.386;9.980;2023-09-19T06:56:02;15.60;99.90
5429;DHT22;2737;52.386;9.980;2023-09-19T06:58:30;15.60;99.90
5429;DHT22;2737;52.386;9.980;2023-09-19T07:00:58;15.60;99.90
5429;DHT22;2737;52.386;9.980;2023-09-19T07:03:25;15.60;99.90
5429;DHT22;2737;52.386;9.980;2023-09-19T07:05:54;15.70;99.90
5429;DHT22;2737;52.386;9.980;2023-09-19T07:08:21;15.70;99.90
5429;DHT22;2737;52.386;9.980;2023-09-19T07:10:48;15.80;99.90
5429;DHT22;2737;52.386;9.980;2023-09-19T07:13:19;15.80;99.90
5429;DHT22;2737;52.386;9.980;2023-09-19T07:15:46;15.90;99.90
5429;DHT22;2737;52.386;9.980;2023-09-19T07:18:15;16.00;99.90
5429;DHT22;2737;52.386;9.980;2023-09-19T07:20:43;16.00;99.90
5429;DHT22;2737;52.386;9.980;2023-09-19T07:23:14;16.10;99.90
5429;DHT22;2737;52.386;9.980;2023-09-19T07:25:42;16.20;99.90
5429;DHT22;2737;52.386;9.980;2023-09-19T07:28:09;16.10;99.90
5429;DHT22;2737;52.386;9.980;2023-09-19T07:30:38;16.00;99.90
5429;DHT22;2737;52.386;9.980;2023-09-19T07:33:07;16.10;99.90
5429;DHT22;2737;52.386;9.980;2023-09-19T07:35:37;16.10;99.90
5429;DHT22;2737;52.386;9.980;2023-09-19T07:38:05;16.20;99.90
5429;DHT22;2737;52.386;9.980;2023-09-19T07:40:33;16.30;99.90
5429;DHT22;2737;52.386;9.980;2023-09-19T07:43:00;16.30;99.90
5429;DHT22;2737;52.386;9.980;2023-09-19T07:45:30;16.30;99.90
5429;DHT22;2737;52.386;9.980;2023-09-19T07:47:59;16.40;99.90
5429;DHT22;2737;52.386;9.980;2023-09-19T07:50:27;16.40;99.90
5429;DHT22;2737;52.386;9.980;2023-09-19T07:52:54;16.40;99.90
5429;DHT22;2737;52.386;9.980;2023-09-19T07:55:22;16.50;99.90
5429;DHT22;2737;52.386;9.980;2023-09-19T07:57:51;16.50;99.90
5429;DHT22;2737;52.386;9.980;2023-09-19T08:00:18;16.50;99.90
5429;DHT22;2737;52.386;9.980;2023-09-19T08:02:45;16.50;99.90
5429;DHT22;2737;52.386;9.980;2023-09-19T08:05:14;16.40;99.90
5429;DHT22;2737;52.386;9.980;2023-09-19T08:07:43;16.50;99.90
5429;DHT22;2737;52.386;9.980;2023-09-19T08:10:11;16.40;99.90
5429;DHT22;2737;52.386;9.980;2023-09-19T08:12:39;16.70;99.90
5429;DHT22;2737;52.386;9.980;2023-09-19T08:15:13;16.60;99.90
5429;DHT22;2737;52.386;9.980;2023-09-19T08:17:41;16.60;99.90
5429;DHT22;2737;52.386;9.980;2023-09-19T08:20:09;16.70;99.90
5429;DHT22;2737;52.386;9.980;2023-09-19T08:22:44;16.70;99.90
5429;DHT22;2737;52.386;9.980;2023-09-19T08:25:13;16.70;99.90
5429;DHT22;2737;52.386;9.980;2023-09-19T08:27:43;16.60;99.90
5429;DHT22;2737;52.386;9.980;2023-09-19T08:30:13;16.60;99.90
5429;DHT22;2737;52.386;9.980;2023-09-19T08:32:41;16.60;99.90
5429;DHT22;2737;52.386;9.980;2023-09-19T08:35:09;16.60;99.90
5429;DHT22;2737;52.386;9.980;2023-09-19T08:37:36;16.60;99.90
5429;DHT22;2737;52.386;9.980;2023-09-19T08:40:05;16.70;99.90
5429;DHT22;2737;52.386;9.980;2023-09-19T08:42:47;16.80;99.90
5429;DHT22;2737;52.386;9.980;2023-09-19T08:45:15;16.90;99.90
5429;DHT22;2737;52.386;9.980;2023-09-19T08:47:46;17.00;99.90
5429;DHT22;2737;52.386;9.980;2023-09-19T08:50:19;16.90;99.90
5429;DHT22;2737;52.386;9.980;2023-09-19T08:52:51;16.90;99.90
5429;DHT22;2737;52.386;9.980;2023-09-19T08:55:27;16.90;99.90
5429;DHT22;2737;52.386;9.980;2023-09-19T08:58:00;16.90;99.90
5429;DHT22;2737;52.386;9.980;2023-09-19T09:00:28;16.90;99.90
5429;DHT22;2737;52.386;9.980;2023-09-19T09:02:56;17.00;99.90
5429;DHT22;2737;52.386;9.980;2023-09-19T09:05:25;17.00;99.90
5429;DHT22;2737;52.386;9.980;2023-09-19T09:07:54;17.00;99.90
5429;DHT22;2737;52.386;9.980;2023-09-19T09:10:23;17.10;99.90
5429;DHT22;2737;52.386;9.980;2023-09-19T09:12:51;17.20;99.90
5429;DHT22;2737;52.386;9.980;2023-09-19T09:15:21;17.20;99.90
5429;DHT22;2737;52.386;9.980;2023-09-19T09:17:49;17.10;99.90
5429;DHT22;2737;52.386;9.980;2023-09-19T09:20:18;17.10;99.90
5429;DHT22;2737;52.386;9.980;2023-09-19T09:22:51;17.10;99.90
5429;DHT22;2737;52.386;9.980;2023-09-19T09:25:19;17.10;99.90
5429;DHT22;2737;52.386;9.980;2023-09-19T09:27:58;17.10;99.90
5429;DHT22;2737;52.386;9.980;2023-09-19T09:30:33;17.10;99.90
5429;DHT22;2737;52.386;9.980;2023-09-19T09:33:10;17.10;99.90
5429;DHT22;2737;52.386;9.980;2023-09-19T09:35:46;17.20;99.90
5429;DHT22;2737;52.386;9.980;2023-09-19T09:38:13;17.30;99.90
5429;DHT22;2737;52.386;9.980;2023-09-19T09:40:48;17.40;99.90
5429;DHT22;2737;52.386;9.980;2023-09-19T09:43:28;17.50;99.90
5429;DHT22;2737;52.386;9.980;2023-09-19T09:46:12;17.50;99.90
5429;DHT22;2737;52.386;9.980;2023-09-19T09:48:59;17.50;99.90
5429;DHT22;2737;52.386;9.980;2023-09-19T09:51:46;17.40;99.90
5429;DHT22;2737;52.386;9.980;2023-09-19T09:54:23;17.50;99.90
5429;DHT22;2737;52.386;9.980;2023-09-19T09:56:57;17.50;99.90
5429;DHT22;2737;52.386;9.980;2023-09-19T09:59:46;17.50;99.90
5429;DHT22;2737;52.386;9.980;2023-09-19T10:02:15;17.30;99.90
5429;DHT22;2737;52.386;9.980;2023-09-19T10:04:48;17.40;99.90
5429;DHT22;2737;52.386;9.980;2023-09-19T10:07:28;17.50;99.90
5429;DHT22;2737;52.386;9.980;2023-09-19T10:09:59;17.60;99.90
5429;DHT22;2737;52.386;9.980;2023-09-19T10:12:38;17.60;99.90
5429;DHT22;2737;52.386;9.980;2023-09-19T10:15:08;17.60;99.90
5429;DHT22;2737;52.386;9.980;2023-09-19T10:17:41;17.60;99.90
5429;DHT22;2737;52.386;9.980;2023-09-19T10:20:12;17.70;99.90
5429;DHT22;2737;52.386;9.980;2023-09-19T10:22:53;17.60;99.90
5429;DHT22;2737;52.386;9.980;2023-09-19T10:25:27;17.60;99.90
5429;DHT22;2737;52.386;9.980;2023-09-19T10:27:57;17.60;99.90
5429;DHT22;2737;52.386;9.980;2023-09-19T10:30:29;17.60;99.90
5429;DHT22;2737;52.386;9.980;2023-09-19T10:33:01;17.70;99.90
5429;DHT22;2737;52.386;9.980;2023-09-19T10:35:29;17.90;99.90
5429;DHT22;2737;52.386;9.980;2023-09-19T10:37:59;18.00;99.90
5429;DHT22;2737;52.386;9.980;2023-09-19T10:40:27;17.90;99.90
5429;DHT22;2737;52.386;9.980;2023-09-19T10:43:01;17.90;99.90
5429;DHT22;2737;52.386;9.980;2023-09-19T10:45:33;18.10;99.90
5429;DHT22;2737;52.386;9.980;2023-09-19T10:48:01;18.10;99.90
5429;DHT22;2737;52.386;9.980;2023-09-19T10:50:33;18.10;99.90
5429;DHT22;2737;52.386;9.980;2023-09-19T10:53:04;18.10;99.90
5429;DHT22;2737;52.386;9.980;2023-09-19T10:55:34;18.10;99.90
5429;DHT22;2737;52.386;9.980;2023-09-19T10:58:02;18.00;99.90
5429;DHT22;2737;52.386;9.980;2023-09-19T11:00:54;18.00;99.90
5429;DHT22;2737;52.386;9.980;2023-09-19T11:03:22;18.00;99.90
5429;DHT22;2737;52.386;9.980;2023-09-19T11:06:10;18.20;99.90
5429;DHT22;2737;52.386;9.980;2023-09-19T11:08:56;18.30;99.90
5429;DHT22;2737;52.386;9.980;2023-09-19T11:11:43;18.40;99.90
5429;DHT22;2737;52.386;9.980;2023-09-19T11:20:22;18.50;99.90
5429;DHT22;2737;52.386;9.980;2023-09-19T11:23:21;18.50;99.90
5429;DHT22;2737;52.386;9.980;2023-09-19T11:25:53;18.60;99.90
5429;DHT22;2737;52.386;9.980;2023-09-19T11:28:31;18.70;99.90
5429;DHT22;2737;52.386;9.980;2023-09-19T11:30:57;18.60;99.90
5429;DHT22;2737;52.386;9.980;2023-09-19T11:33:26;18.50;99.90
5429;DHT22;2737;52.386;9.980;2023-09-19T11:36:01;18.60;99.90
5429;DHT22;2737;52.386;9.980;2023-09-19T11:38:59;18.70;99.90
5429;DHT22;2737;52.386;9.980;2023-09-19T11:41:38;18.70;99.90
5429;DHT22;2737;52.386;9.980;2023-09-19T11:44:34;18.80;99.90
5429;DHT22;2737;52.386;9.980;2023-09-19T11:47:06;18.80;99.90
5429;DHT22;2737;52.386;9.980;2023-09-19T11:49:35;18.90;99.90
5429;DHT22;2737;52.386;9.980;2023-09-19T11:52:10;18.90;99.90
5429;DHT22;2737;52.386;9.980;2023-09-19T11:54:40;18.90;99.90
5429;DHT22;2737;52.386;9.980;2023-09-19T11:57:09;18.80;99.90
5429;DHT22;2737;52.386;9.980;2023-09-19T11:59:39;18.70;99.90
5429;DHT22;2737;52.386;9.980;2023-09-19T12:02:06;18.70;99.90
5429;DHT22;2737;52.386;9.980;2023-09-19T12:04:34;18.70;99.90
5429;DHT22;2737;52.386;9.980;2023-09-19T12:07:04;18.80;99.90
5429;DHT22;2737;52.386;9.980;2023-09-19T12:09:39;19.00;99.90
5429;DHT22;2737;52.386;9.980;2023-09-19T12:12:07;19.10;99.90
5429;DHT22;2737;52.386;9.980;2023-09-19T12:14:34;19.10;99.90
5429;DHT22;2737;52.386;9.980;2023-09-19T12:17:02;19.00;99.90
5429;DHT22;2737;52.386;9.980;2023-09-19T12:19:30;18.90;99.90
5429;DHT22;2737;52.386;9.980;2023-09-19T12:21:58;18.90;99.90
5429;DHT22;2737;52.386;9.980;2023-09-19T12:24:30;19.00;99.90
5429;DHT22;2737;52.386;9.980;2023-09-19T12:27:03;18.90;99.90
5429;DHT22;2737;52.386;9.980;2023-09-19T12:29:44;18.80;99.90
5429;DHT22;2737;52.386;9.980;2023-09-19T12:32:12;18.90;99.90
5429;DHT22;2737;52.386;9.980;2023-09-19T12:34:42;19.00;99.90
5429;DHT22;2737;52.386;9.980;2023-09-19T12:37:11;18.90;99.90
5429;DHT22;2737;52.386;9.980;2023-09-19T12:39:43;18.70;99.90
5429;DHT22;2737;52.386;9.980;2023-09-19T12:42:16;18.60;99.90
5429;DHT22;2737;52.386;9.980;2023-09-19T12:44:45;18.60;99.90
5429;DHT22;2737;52.386;9.980;2023-09-19T12:47:13;18.70;99.90
5429;DHT22;2737;52.386;9.980;2023-09-19T12:50:11;18.80;99.90
5429;DHT22;2737;52.386;9.980;2023-09-19T12:52:44;18.90;99.90
5429;DHT22;2737;52.386;9.980;2023-09-19T12:55:23;18.90;99.90
5429;DHT22;2737;52.386;9.980;2023-09-19T12:57:59;18.90;99.90
5429;DHT22;2737;52.386;9.980;2023-09-19T13:00:38;18.90;99.90
5429;DHT22;2737;52.386;9.980;2023-09-19T13:03:17;18.90;99.90
5429;DHT22;2737;52.386;9.980;2023-09-19T13:05:51;18.90;99.90
5429;DHT22;2737;52.386;9.980;2023-09-19T13:08:21;18.90;99.90
5429;DHT22;2737;52.386;9.980;2023-09-19T13:11:05;18.90;99.90
5429;DHT22;2737;52.386;9.980;2023-09-19T13:13:37;18.80;99.90
5429;DHT22;2737;52.386;9.980;2023-09-19T13:16:04;18.90;99.90
5429;DHT22;2737;52.386;9.980;2023-09-19T13:18:44;18.90;99.90
5429;DHT22;2737;52.386;9.980;2023-09-19T13:21:13;18.90;99.90
5429;DHT22;2737;52.386;9.980;2023-09-19T13:23:52;19.00;99.90
5429;DHT22;2737;52.386;9.980;2023-09-19T13:26:20;19.20;99.90
5429;DHT22;2737;52.386;9.980;2023-09-19T13:28:49;19.20;99.90
5429;DHT22;2737;52.386;9.980;2023-09-19T13:31:17;19.30;99.90
5429;DHT22;2737;52.386;9.980;2023-09-19T13:33:44;19.50;99.90
5429;DHT22;2737;52.386;9.980;2023-09-19T13:36:12;19.40;99.90
5429;DHT22;2737;52.386;9.980;2023-09-19T13:38:40;19.30;99.90
5429;DHT22;2737;52.386;9.980;2023-09-19T13:41:08;19.20;99.90
5429;DHT22;2737;52.386;9.980;2023-09-19T13:43:36;19.40;99.90
5429;DHT22;2737;52.386;9.980;2023-09-19T13:46:04;19.40;99.90
5429;DHT22;2737;52.386;9.980;2023-09-19T13:48:33;19.50;99.90
5429;DHT22;2737;52.386;9.980;2023-09-19T13:51:01;19.50;99.90
5429;DHT22;2737;52.386;9.980;2023-09-19T13:53:29;19.40;99.90
5429;DHT22;2737;52.386;9.980;2023-09-19T13:55:56;19.50;99.90
5429;DHT22;2737;52.386;9.980;2023-09-19T13:58:23;19.70;99.90
5429;DHT22;2737;52.386;9.980;2023-09-19T14:00:50;19.70;99.90
5429;DHT22;2737;52.386;9.980;2023-09-19T14:03:22;19.70;99.90
5429;DHT22;2737;52.386;9.980;2023-09-19T14:05:49;19.60;99.90
5429;DHT22;2737;52.386;9.980;2023-09-19T14:08:17;19.70;99.90
5429;DHT22;2737;52.386;9.980;2023-09-19T14:10:44;19.70;99.90
5429;DHT22;2737;52.386;9.980;2023-09-19T14:13:11;19.70;99.90
5429;DHT22;2737;52.386;9.980;2023-09-19T14:15:40;19.90;99.90
5429;DHT22;2737;52.386;9.980;2023-09-19T14:18:08;19.90;99.90
5429;DHT22;2737;52.386;9.980;2023-09-19T14:20:38;19.90;99.90
5429;DHT22;2737;52.386;9.980;2023-09-19T14:23:06;20.00;99.90
5429;DHT22;2737;52.386;9.980;2023-09-19T14:25:34;20.00;99.90
5429;DHT22;2737;52.386;9.980;2023-09-19T14:28:02;20.00;99.90
5429;DHT22;2737;52.386;9.980;2023-09-19T14:30:29;20.00;99.90
5429;DHT22;2737;52.386;9.980;2023-09-19T14:32:56;19.90;99.90
5429;DHT22;2737;52.386;9.980;2023-09-19T14:35:24;20.00;99.90
5429;DHT22;2737;52.386;9.980;2023-09-19T14:37:53;19.90;99.90
5429;DHT22;2737;52.386;9.980;2023-09-19T14:40:20;20.00;99.90
5429;DHT22;2737;52.386;9.980;2023-09-19T14:42:48;19.90;99.90
5429;DHT22;2737;52.386;9.980;2023-09-19T14:45:15;19.80;99.90
5429;DHT22;2737;52.386;9.980;2023-09-19T14:47:45;19.90;99.90
5429;DHT22;2737;52.386;9.980;2023-09-19T14:50:12;19.90;99.90
5429;DHT22;2737;52.386;9.980;2023-09-19T14:52:40;20.00;99.90
5429;DHT22;2737;52.386;9.980;2023-09-19T14:55:09;20.00;99.90
5429;DHT22;2737;52.386;9.980;2023-09-19T14:57:41;20.00;99.90
5429;DHT22;2737;52.386;9.980;2023-09-19T15:00:11;20.10;99.90
5429;DHT22;2737;52.386;9.980;2023-09-19T15:02:39;20.10;99.90
5429;DHT22;2737;52.386;9.980;2023-09-19T15:05:07;20.20;99.90
5429;DHT22;2737;52.386;9.980;2023-09-19T15:07:35;20.10;99.90
5429;DHT22;2737;52.386;9.980;2023-09-19T15:10:04;20.10;99.90
5429;DHT22;2737;52.386;9.980;2023-09-19T15:12:36;20.00;99.90
5429;DHT22;2737;52.386;9.980;2023-09-19T15:15:06;19.90;99.90
5429;DHT22;2737;52.386;9.980;2023-09-19T15:17:33;19.90;99.90
5429;DHT22;2737;52.386;9.980;2023-09-19T15:20:00;20.00;99.90
5429;DHT22;2737;52.386;9.980;2023-09-19T15:22:32;20.10;99.90
5429;DHT22;2737;52.386;9.980;2023-09-19T15:24:59;19.90;99.90
5429;DHT22;2737;52.386;9.980;2023-09-19T15:27:27;19.90;99.90
5429;DHT22;2737;52.386;9.980;2023-09-19T15:29:58;19.80;99.90
5429;DHT22;2737;52.386;9.980;2023-09-19T15:32:26;19.80;99.90
5429;DHT22;2737;52.386;9.980;2023-09-19T15:34:53;19.80;99.90
5429;DHT22;2737;52.386;9.980;2023-09-19T15:37:20;19.80;99.90
5429;DHT22;2737;52.386;9.980;2023-09-19T15:39:48;19.70;99.90
5429;DHT22;2737;52.386;9.980;2023-09-19T15:42:15;19.70;99.90
5429;DHT22;2737;52.386;9.980;2023-09-19T15:44:42;19.70;99.90
5429;DHT22;2737;52.386;9.980;2023-09-19T15:47:11;19.70;99.90
5429;DHT22;2737;52.386;9.980;2023-09-19T15:49:38;19.70;99.90
5429;DHT22;2737;52.386;9.980;2023-09-19T15:52:05;19.70;99.90
5429;DHT22;2737;52.386;9.980;2023-09-19T15:54:34;19.70;99.90
5429;DHT22;2737;52.386;9.980;2023-09-19T15:57:01;19.60;99.90
5429;DHT22;2737;52.386;9.980;2023-09-19T15:59:28;19.60;99.90
5429;DHT22;2737;52.386;9.980;2023-09-19T16:01:55;19.60;99.90
5429;DHT22;2737;52.386;9.980;2023-09-19T16:04:24;19.60;99.90
5429;DHT22;2737;52.386;9.980;2023-09-19T16:06:51;19.60;99.90
5429;DHT22;2737;52.386;9.980;2023-09-19T16:09:18;19.50;99.90
5429;DHT22;2737;52.386;9.980;2023-09-19T16:11:45;19.40;99.90
5429;DHT22;2737;52.386;9.980;2023-09-19T16:14:14;19.30;99.90
5429;DHT22;2737;52.386;9.980;2023-09-19T16:16:41;19.30;99.90
5429;DHT22;2737;52.386;9.980;2023-09-19T16:19:09;19.30;99.90
5429;DHT22;2737;52.386;9.980;2023-09-19T16:21:38;19.30;99.90
5429;DHT22;2737;52.386;9.980;2023-09-19T16:24:08;19.30;99.90
5429;DHT22;2737;52.386;9.980;2023-09-19T16:26:36;19.20;99.90
5429;DHT22;2737;52.386;9.980;2023-09-19T16:29:04;19.20;99.90
5429;DHT22;2737;52.386;9.980;2023-09-19T16:31:31;19.20;99.90